Time;durP1;ratioP1;P1;durP2;ratioP2;P2;SDS_P1;SDS_P2;PMS_P1;PMS_P2;Temp;Humidity;BMP_temperature;BMP_pressure;BME280_temperature;BME280_humidity;BME280_pressure;Samples;Min_cycle;Max_cycle;Signal;HPM_P1;HPM_P2
2023/10/31 00:02:01;;;;;;;3.35;1.33;;;11.60;90.60;;;;;;4973607;28;20035;-85
2023/10/31 00:04:27;;;;;;;3.53;1.35;;;11.60;90.60;;;;;;4973172;28;20039;-84
2023/10/31 00:06:52;;;;;;;3.45;1.58;;;11.60;90.60;;;;;;4956747;28;20043;-86
2023/10/31 00:09:18;;;;;;;2.50;1.35;;;11.60;90.60;;;;;;4956927;28;20454;-86
2023/10/31 00:11:44;;;;;;;3.33;1.40;;;11.60;90.60;;;;;;4956951;28;20050;-86
2023/10/31 00:14:10;;;;;;;2.10;1.00;;;11.60;90.60;;;;;;4957267;28;20038;-86
2023/10/31 00:16:35;;;;;;;2.50;1.17;;;11.60;90.60;;;;;;4957061;28;20043;-87
2023/10/31 00:19:01;;;;;;;3.38;1.10;;;11.50;90.60;;;;;;4973402;28;20045;-86
2023/10/31 00:21:26;;;;;;;1.85;1.05;;;11.50;90.60;;;;;;4972631;28;20042;-87
2023/10/31 00:23:52;;;;;;;2.40;0.90;;;11.50;90.60;;;;;;4955521;28;20038;-87
2023/10/31 00:26:18;;;;;;;4.28;1.25;;;11.50;90.80;;;;;;4965945;28;20039;-86
2023/10/31 00:28:43;;;;;;;3.35;0.93;;;11.50;90.50;;;;;;4957232;28;20125;-86
2023/10/31 00:31:11;;;;;;;3.17;1.00;;;11.50;90.50;;;;;;4953491;28;20122;-88
2023/10/31 00:33:37;;;;;;;13.77;1.65;;;11.50;90.40;;;;;;4967245;28;20534;-87
2023/10/31 00:36:03;;;;;;;3.20;0.63;;;11.40;90.30;;;;;;4963445;28;20081;-87
2023/10/31 00:38:29;;;;;;;3.60;0.65;;;11.40;90.30;;;;;;4972902;28;20472;-87
2023/10/31 00:40:54;;;;;;;5.72;1.15;;;11.50;90.20;;;;;;4956210;28;20092;-87
2023/10/31 00:43:20;;;;;;;2.13;0.57;;;11.40;90.10;;;;;;4972919;28;20483;-87
2023/10/31 00:45:46;;;;;;;3.03;0.85;;;11.40;90.10;;;;;;4956680;28;20050;-86
2023/10/31 00:48:11;;;;;;;1.95;0.80;;;11.40;90.10;;;;;;4972885;28;20061;-86
2023/10/31 00:50:37;;;;;;;4.60;0.80;;;11.50;90.10;;;;;;4956011;28;20042;-88
2023/10/31 00:53:02;;;;;;;3.65;0.70;;;11.40;90.00;;;;;;4956324;28;20106;-86
2023/10/31 00:55:28;;;;;;;1.40;0.47;;;11.30;90.00;;;;;;4954686;28;20232;-86
2023/10/31 00:57:53;;;;;;;2.65;0.73;;;11.30;90.00;;;;;;4970986;28;20047;-87
2023/10/31 01:00:19;;;;;;;5.22;0.82;;;11.30;90.00;;;;;;4970823;28;20754;-86
2023/10/31 01:02:45;;;;;;;3.25;0.90;;;11.30;90.00;;;;;;4966971;28;20588;-86
2023/10/31 01:05:11;;;;;;;4.65;0.75;;;11.30;90.00;;;;;;4947313;28;20039;-86
2023/10/31 01:07:36;;;;;;;3.47;1.17;;;11.30;90.00;;;;;;4954338;28;20042;-86
2023/10/31 01:10:03;;;;;;;2.47;0.80;;;11.30;90.00;;;;;;4972525;28;20094;-87
2023/10/31 01:12:29;;;;;;;2.38;0.95;;;11.30;90.00;;;;;;4956279;28;20057;-87
2023/10/31 01:14:54;;;;;;;4.38;2.15;;;11.30;90.00;;;;;;4972226;28;20256;-87
2023/10/31 01:17:21;;;;;;;4.78;1.77;;;11.30;90.00;;;;;;4956351;28;20046;-87
2023/10/31 01:19:46;;;;;;;4.93;2.10;;;11.30;90.20;;;;;;4955676;28;20522;-86
2023/10/31 01:22:12;;;;;;;5.78;2.13;;;11.30;90.00;;;;;;4972093;28;20042;-87
2023/10/31 01:24:38;;;;;;;3.80;2.00;;;11.30;90.00;;;;;;4956071;28;20035;-86
2023/10/31 01:27:03;;;;;;;4.82;2.00;;;11.30;90.10;;;;;;4971814;28;20085;-87
2023/10/31 01:29:29;;;;;;;4.47;1.67;;;11.30;90.10;;;;;;4971936;28;20031;-86
2023/10/31 01:31:56;;;;;;;5.80;1.83;;;11.30;90.10;;;;;;4971650;28;20506;-87
2023/10/31 01:34:21;;;;;;;6.28;2.17;;;11.20;90.00;;;;;;4954809;28;20046;-86
2023/10/31 01:36:47;;;;;;;4.32;1.30;;;11.30;90.10;;;;;;4955863;28;20031;-87
2023/10/31 01:39:12;;;;;;;5.65;1.20;;;11.20;90.00;;;;;;4955896;28;20496;-86
2023/10/31 01:41:42;;;;;;;6.38;1.70;;;11.20;90.00;;;;;;4955975;28;20408;-86
2023/10/31 01:44:07;;;;;;;6.97;1.77;;;11.20;90.00;;;;;;4970827;28;20488;-86
2023/10/31 01:46:33;;;;;;;5.30;1.40;;;11.20;89.90;;;;;;4971550;28;20046;-86
2023/10/31 01:48:59;;;;;;;3.08;1.23;;;11.20;89.80;;;;;;4970990;28;20043;-86
2023/10/31 01:51:26;;;;;;;4.32;1.83;;;11.20;89.80;;;;;;4971753;28;20043;-87
2023/10/31 01:53:52;;;;;;;4.00;1.35;;;11.20;89.80;;;;;;4955333;28;20484;-86
2023/10/31 01:56:19;;;;;;;4.65;1.52;;;11.20;89.80;;;;;;4956053;28;20365;-85
2023/10/31 01:58:46;;;;;;;4.85;1.45;;;11.10;89.80;;;;;;4971674;28;20043;-86
2023/10/31 02:01:12;;;;;;;3.25;1.20;;;11.10;89.90;;;;;;4971209;28;20125;-86
2023/10/31 02:03:38;;;;;;;3.10;1.17;;;11.10;90.00;;;;;;4970604;28;20085;-86
2023/10/31 02:06:04;;;;;;;3.47;1.35;;;11.10;90.00;;;;;;4971389;28;20115;-86
2023/10/31 02:08:30;;;;;;;3.65;1.50;;;11.10;90.00;;;;;;4971676;28;20129;-85
2023/10/31 02:10:56;;;;;;;4.35;1.60;;;11.10;90.00;;;;;;4955282;28;20126;-85
2023/10/31 02:13:22;;;;;;;6.65;1.67;;;11.10;90.10;;;;;;4955368;28;20089;-86
2023/10/31 02:15:47;;;;;;;5.25;1.80;;;11.10;90.10;;;;;;4954934;28;20038;-86
2023/10/31 02:18:13;;;;;;;4.30;1.65;;;11.10;90.10;;;;;;4971340;28;20134;-86
2023/10/31 02:20:39;;;;;;;4.65;2.00;;;11.20;90.20;;;;;;4971526;28;20061;-86
2023/10/31 02:23:05;;;;;;;4.40;2.05;;;11.10;90.10;;;;;;4955316;28;20043;-86
2023/10/31 02:25:31;;;;;;;2.83;1.48;;;11.10;90.10;;;;;;4971551;28;20484;-86
2023/10/31 02:27:57;;;;;;;6.45;1.70;;;11.10;90.20;;;;;;4955100;28;20049;-86
2023/10/31 02:30:24;;;;;;;4.97;1.52;;;11.10;90.20;;;;;;4971001;28;20047;-86
2023/10/31 02:32:50;;;;;;;3.80;1.60;;;11.10;90.20;;;;;;4954623;28;20082;-86
2023/10/31 02:35:17;;;;;;;4.10;1.60;;;11.10;90.30;;;;;;4955081;28;20035;-86
2023/10/31 02:37:43;;;;;;;3.30;1.30;;;11.10;90.30;;;;;;4955381;28;20230;-86
2023/10/31 02:40:10;;;;;;;3.25;1.70;;;11.10;90.30;;;;;;4958161;28;20376;-86
2023/10/31 02:42:35;;;;;;;6.47;1.60;;;11.10;90.30;;;;;;4974973;28;20043;-86
2023/10/31 02:45:01;;;;;;;4.15;1.65;;;11.20;90.40;;;;;;4958897;28;20089;-86
2023/10/31 02:47:26;;;;;;;3.63;1.67;;;11.20;90.40;;;;;;4974528;28;20061;-86
2023/10/31 02:49:52;;;;;;;5.13;1.80;;;11.20;90.40;;;;;;4974847;28;20051;-86
2023/10/31 02:52:18;;;;;;;3.53;1.60;;;11.20;90.40;;;;;;4975059;28;20510;-87
2023/10/31 02:54:43;;;;;;;4.03;1.63;;;11.20;90.60;;;;;;4975029;28;20035;-86
2023/10/31 02:57:10;;;;;;;4.75;1.85;;;11.30;90.40;;;;;;4958904;28;20042;-86
2023/10/31 02:59:35;;;;;;;5.65;1.80;;;11.20;90.40;;;;;;4973947;28;20042;-86
2023/10/31 03:02:01;;;;;;;3.97;1.60;;;11.90;90.60;;;;;;4958245;28;20101;-86
2023/10/31 03:04:26;;;;;;;3.15;1.75;;;11.30;90.40;;;;;;4974654;28;20051;-86
2023/10/31 03:06:52;;;;;;;4.38;2.00;;;11.30;90.40;;;;;;4974968;28;20038;-86
2023/10/31 03:09:17;;;;;;;3.75;1.75;;;11.30;90.40;;;;;;4958177;28;20495;-86
2023/10/31 03:11:43;;;;;;;4.75;1.92;;;11.30;90.50;;;;;;4974172;28;20034;-85
2023/10/31 03:14:09;;;;;;;6.07;2.33;;;11.30;90.50;;;;;;4974252;28;20046;-85
2023/10/31 03:16:34;;;;;;;2.92;1.60;;;11.30;90.50;;;;;;4958214;28;20097;-85
2023/10/31 03:19:00;;;;;;;4.78;2.30;;;11.30;90.50;;;;;;4974318;28;20035;-86
2023/10/31 03:21:26;;;;;;;5.20;2.20;;;11.30;90.50;;;;;;4958612;28;20043;-85
2023/10/31 03:23:57;;;;;;;4.88;2.55;;;11.30;90.50;;;;;;4957911;28;20050;-85
2023/10/31 03:26:23;;;;;;;5.35;2.15;;;11.40;90.50;;;;;;4958431;28;20132;-85
2023/10/31 03:28:49;;;;;;;3.88;2.00;;;11.40;90.50;;;;;;4957913;28;20083;-85
2023/10/31 03:31:15;;;;;;;4.72;2.00;;;11.80;90.60;;;;;;4973089;28;20038;-85
2023/10/31 03:33:41;;;;;;;5.15;2.00;;;11.40;90.50;;;;;;4973799;28;20043;-85
2023/10/31 03:36:08;;;;;;;4.07;1.63;;;11.90;90.60;;;;;;4974144;28;20046;-85
2023/10/31 03:38:34;;;;;;;4.80;1.77;;;11.40;90.50;;;;;;4958153;28;20050;-85
2023/10/31 03:41:00;;;;;;;3.05;1.50;;;11.40;90.50;;;;;;4974385;28;20074;-85
2023/10/31 03:43:26;;;;;;;4.22;1.58;;;11.40;90.50;;;;;;4973993;28;20035;-85
2023/10/31 03:45:52;;;;;;;4.75;1.60;;;11.40;90.50;;;;;;4972559;28;20480;-85
2023/10/31 03:48:18;;;;;;;4.50;1.35;;;11.40;90.50;;;;;;4957242;28;20061;-85
2023/10/31 03:50:44;;;;;;;3.70;1.13;;;11.40;90.50;;;;;;4972833;28;20047;-85
2023/10/31 03:53:10;;;;;;;4.30;1.33;;;11.40;90.50;;;;;;4973514;28;20057;-85
2023/10/31 03:55:35;;;;;;;3.03;1.00;;;11.90;90.60;;;;;;4974070;28;20119;-85
2023/10/31 03:58:02;;;;;;;3.67;0.90;;;11.90;90.60;;;;;;4957479;28;21786;-86
2023/10/31 04:00:27;;;;;;;6.05;1.38;;;11.70;90.50;;;;;;4972708;28;20053;-85
2023/10/31 04:02:53;;;;;;;4.53;1.00;;;11.40;90.40;;;;;;4973441;28;20133;-85
2023/10/31 04:05:19;;;;;;;3.00;0.95;;;11.40;90.40;;;;;;4957604;28;20066;-85
2023/10/31 04:07:46;;;;;;;2.78;1.00;;;11.40;90.40;;;;;;4971302;28;20042;-85
2023/10/31 04:10:12;;;;;;;5.13;1.10;;;11.90;90.70;;;;;;4973498;28;20101;-85
2023/10/31 04:12:37;;;;;;;3.05;1.10;;;11.40;90.30;;;;;;4957313;28;20038;-85
2023/10/31 04:15:04;;;;;;;3.50;0.90;;;11.40;90.30;;;;;;4972820;28;20125;-85
2023/10/31 04:17:29;;;;;;;3.33;1.00;;;11.40;90.30;;;;;;4957095;28;20039;-85
2023/10/31 04:19:55;;;;;;;3.60;1.20;;;11.40;90.30;;;;;;4973417;28;20093;-85
2023/10/31 04:22:20;;;;;;;6.63;1.02;;;11.40;90.30;;;;;;4973257;28;20046;-85
2023/10/31 04:24:46;;;;;;;3.78;1.08;;;11.40;90.30;;;;;;4956599;28;20181;-86
2023/10/31 04:27:12;;;;;;;3.05;0.80;;;11.40;90.40;;;;;;4973308;28;20042;-85
2023/10/31 04:29:37;;;;;;;3.08;0.73;;;11.40;90.20;;;;;;4955286;28;20039;-84
2023/10/31 04:32:03;;;;;;;3.55;0.98;;;11.40;90.20;;;;;;4957006;28;20042;-85
2023/10/31 04:34:29;;;;;;;3.40;0.75;;;11.40;90.20;;;;;;4972839;28;20039;-85
2023/10/31 04:36:55;;;;;;;3.10;1.10;;;11.40;90.20;;;;;;4957226;28;20090;-85
2023/10/31 04:39:20;;;;;;;2.75;0.80;;;11.40;90.20;;;;;;4972707;28;20117;-85
2023/10/31 04:41:46;;;;;;;5.75;1.00;;;11.40;90.20;;;;;;4957060;28;20039;-85
2023/10/31 04:44:12;;;;;;;3.58;1.00;;;11.40;90.20;;;;;;4956188;28;20038;-85
2023/10/31 04:46:37;;;;;;;4.43;0.90;;;11.40;90.20;;;;;;4956546;28;20038;-84
2023/10/31 04:49:03;;;;;;;4.95;0.95;;;11.40;90.20;;;;;;4956399;28;20070;-85
2023/10/31 04:51:36;;;;;;;3.45;0.93;;;11.40;90.20;;;;;;4956322;28;20448;-85
2023/10/31 04:54:02;;;;;;;4.15;1.00;;;11.40;90.20;;;;;;4956720;28;20034;-85
2023/10/31 04:56:28;;;;;;;4.63;1.33;;;11.40;90.20;;;;;;4955547;28;20081;-85
2023/10/31 04:58:53;;;;;;;3.22;1.00;;;11.40;90.20;;;;;;4956092;28;20038;-86
2023/10/31 05:01:19;;;;;;;4.35;1.00;;;11.40;90.20;;;;;;4972620;28;20042;-85
2023/10/31 05:03:45;;;;;;;2.95;1.20;;;11.40;90.20;;;;;;4956241;28;20420;-84
2023/10/31 05:06:10;;;;;;;2.75;1.00;;;11.40;90.20;;;;;;4956447;28;20506;-85
2023/10/31 05:08:36;;;;;;;3.30;0.90;;;11.50;90.20;;;;;;4972291;28;20047;-85
2023/10/31 05:11:02;;;;;;;3.55;1.20;;;11.40;90.20;;;;;;4955634;28;20043;-85
2023/10/31 05:13:27;;;;;;;4.05;1.10;;;11.40;90.20;;;;;;4955562;28;20107;-85
2023/10/31 05:15:53;;;;;;;4.93;1.10;;;11.60;90.20;;;;;;4956355;28;20060;-84
2023/10/31 05:18:19;;;;;;;5.65;1.25;;;11.40;90.20;;;;;;4955912;28;20046;-85
2023/10/31 05:20:45;;;;;;;2.97;1.42;;;11.40;90.20;;;;;;4972233;28;20039;-85
2023/10/31 05:23:10;;;;;;;3.92;1.40;;;11.50;90.20;;;;;;4972238;28;20516;-85
2023/10/31 05:25:37;;;;;;;5.60;1.10;;;11.50;90.20;;;;;;4955562;28;20125;-84
2023/10/31 05:28:03;;;;;;;3.50;0.98;;;11.40;90.20;;;;;;4971879;28;20505;-85
2023/10/31 05:30:28;;;;;;;3.03;0.95;;;11.40;90.20;;;;;;4955734;28;20069;-85
2023/10/31 05:32:54;;;;;;;3.50;0.88;;;11.40;90.20;;;;;;4955544;28;20372;-86
2023/10/31 05:35:21;;;;;;;2.08;0.57;;;11.40;90.20;;;;;;4955771;28;20039;-84
2023/10/31 05:37:47;;;;;;;4.25;1.02;;;11.40;90.20;;;;;;4955620;28;20081;-85
2023/10/31 05:40:13;;;;;;;4.40;1.13;;;11.40;90.20;;;;;;4971590;28;20456;-85
2023/10/31 05:42:39;;;;;;;7.32;1.77;;;11.40;90.20;;;;;;4955820;28;20039;-86
2023/10/31 05:45:05;;;;;;;2.45;0.80;;;11.40;90.20;;;;;;4955662;28;20081;-86
2023/10/31 05:47:30;;;;;;;2.50;0.93;;;11.40;90.20;;;;;;4971518;28;20098;-85
2023/10/31 05:49:57;;;;;;;2.80;0.88;;;11.40;90.20;;;;;;4971792;28;20054;-86
2023/10/31 05:52:23;;;;;;;2.60;0.90;;;11.40;90.20;;;;;;4955401;28;20081;-87
2023/10/31 05:54:48;;;;;;;3.60;0.85;;;11.40;90.20;;;;;;4955376;28;20113;-86
2023/10/31 05:57:14;;;;;;;4.28;0.60;;;11.40;90.20;;;;;;4955724;28;20058;-85
2023/10/31 05:59:39;;;;;;;2.25;0.73;;;11.40;90.10;;;;;;4954859;28;20045;-88
2023/10/31 06:02:05;;;;;;;1.63;0.68;;;11.40;90.10;;;;;;4972079;28;20125;-86
2023/10/31 06:04:30;;;;;;;3.80;0.90;;;11.40;90.10;;;;;;4954887;28;20047;-84
2023/10/31 06:06:56;;;;;;;3.30;0.88;;;11.40;90.10;;;;;;4971165;28;20043;-84
2023/10/31 06:09:21;;;;;;;4.78;1.02;;;11.40;90.10;;;;;;4970729;28;20035;-85
2023/10/31 06:11:47;;;;;;;6.00;1.10;;;11.40;90.10;;;;;;4971562;28;20396;-85
2023/10/31 06:14:13;;;;;;;3.20;1.20;;;11.40;90.10;;;;;;4970875;28;20038;-84
2023/10/31 06:16:45;;;;;;;2.92;1.40;;;11.40;90.10;;;;;;4971368;28;20039;-84
2023/10/31 06:19:10;;;;;;;2.65;1.05;;;11.40;90.10;;;;;;4955560;28;20045;-85
2023/10/31 06:21:36;;;;;;;2.42;1.35;;;11.40;90.10;;;;;;4971742;28;20047;-85
2023/10/31 06:24:03;;;;;;;3.20;1.10;;;11.40;90.10;;;;;;4970710;28;20511;-85
2023/10/31 06:26:29;;;;;;;3.63;2.00;;;11.40;90.20;;;;;;4955464;28;20141;-84
2023/10/31 06:28:54;;;;;;;5.70;1.23;;;11.40;90.20;;;;;;4970295;28;20121;-84
2023/10/31 06:31:20;;;;;;;3.33;1.77;;;11.40;90.20;;;;;;4962793;28;20457;-84
2023/10/31 06:33:45;;;;;;;2.85;1.40;;;11.40;90.20;;;;;;4968347;28;20065;-84
2023/10/31 06:36:11;;;;;;;5.13;2.40;;;11.50;90.20;;;;;;4954837;28;20484;-84
2023/10/31 06:38:37;;;;;;;5.90;2.40;;;11.40;90.20;;;;;;4968233;28;20039;-84
2023/10/31 06:41:03;;;;;;;4.72;1.90;;;11.50;90.20;;;;;;4971190;28;20396;-85
2023/10/31 06:43:28;;;;;;;5.22;2.55;;;11.40;90.20;;;;;;4970925;28;20089;-84
2023/10/31 06:45:54;;;;;;;4.80;1.92;;;11.50;90.30;;;;;;4970839;28;20435;-85
2023/10/31 06:48:20;;;;;;;4.97;2.55;;;11.50;90.30;;;;;;4953951;28;20380;-84
2023/10/31 06:50:46;;;;;;;5.35;2.50;;;11.50;90.30;;;;;;4941977;28;20043;-84
2023/10/31 06:53:11;;;;;;;4.00;2.05;;;11.50;90.30;;;;;;4962542;28;20039;-84
2023/10/31 06:55:37;;;;;;;4.93;2.30;;;11.50;90.30;;;;;;4959671;28;20524;-84
2023/10/31 06:58:03;;;;;;;4.25;2.30;;;11.50;90.40;;;;;;4945633;28;20065;-85
2023/10/31 07:00:28;;;;;;;5.40;2.45;;;11.50;90.40;;;;;;4954609;28;20125;-84
2023/10/31 07:02:54;;;;;;;4.15;2.20;;;11.50;90.40;;;;;;4971085;28;20130;-84
2023/10/31 07:05:20;;;;;;;8.52;6.10;;;11.50;90.50;;;;;;4944188;28;20042;-85
2023/10/31 07:07:47;;;;;;;5.47;1.90;;;11.50;90.50;;;;;;4962841;28;20038;-85
2023/10/31 07:10:12;;;;;;;7.03;2.20;;;11.50;90.50;;;;;;4945615;28;20097;-86
2023/10/31 07:12:38;;;;;;;5.75;1.77;;;11.60;90.60;;;;;;4954783;28;20034;-84
2023/10/31 07:15:04;;;;;;;7.22;2.22;;;11.60;90.60;;;;;;4952097;28;20036;-84
2023/10/31 07:17:30;;;;;;;6.35;2.35;;;11.60;90.60;;;;;;4954877;28;20047;-84
2023/10/31 07:19:56;;;;;;;8.00;1.90;;;11.60;90.60;;;;;;4954803;28;20081;-84
2023/10/31 07:22:24;;;;;;;4.18;1.70;;;11.60;90.60;;;;;;4954459;28;20102;-85
2023/10/31 07:24:52;;;;;;;4.03;1.52;;;11.60;90.60;;;;;;4954726;28;20079;-84
2023/10/31 07:27:18;;;;;;;5.13;1.80;;;11.60;90.60;;;;;;4957145;28;20042;-84
2023/10/31 07:29:44;;;;;;;5.60;1.85;;;11.60;90.60;;;;;;4974288;28;20455;-84
2023/10/31 07:32:10;;;;;;;4.85;1.55;;;11.60;90.60;;;;;;4957900;28;20129;-84
2023/10/31 07:34:35;;;;;;;5.47;1.73;;;11.60;90.60;;;;;;4974236;28;20470;-84
2023/10/31 07:37:01;;;;;;;4.00;1.50;;;11.70;90.70;;;;;;4973704;28;20046;-84
2023/10/31 07:39:28;;;;;;;5.22;1.42;;;11.70;90.60;;;;;;4974130;28;20134;-84
2023/10/31 07:41:53;;;;;;;2.33;1.33;;;11.70;90.70;;;;;;4974230;28;20562;-84
2023/10/31 07:44:19;;;;;;;3.83;1.40;;;11.70;90.70;;;;;;4957813;28;20039;-84
2023/10/31 07:46:44;;;;;;;3.58;1.38;;;11.70;90.60;;;;;;4957745;28;20063;-85
2023/10/31 07:49:10;;;;;;;2.30;1.33;;;11.70;90.60;;;;;;4957954;28;20415;-84
2023/10/31 07:51:36;;;;;;;4.78;1.52;;;11.70;90.70;;;;;;4973134;28;20050;-84
2023/10/31 07:54:01;;;;;;;2.00;1.20;;;11.70;90.70;;;;;;4973908;28;20115;-84
2023/10/31 07:56:28;;;;;;;5.40;1.65;;;11.70;90.90;;;;;;4974070;28;20050;-84
2023/10/31 07:58:54;;;;;;;4.53;1.40;;;11.80;90.80;;;;;;4973357;28;20035;-84
2023/10/31 08:01:21;;;;;;;3.75;1.25;;;11.80;90.90;;;;;;4974107;28;20514;-84
2023/10/31 08:03:47;;;;;;;2.58;1.05;;;11.90;91.10;;;;;;4957622;28;20043;-84
2023/10/31 08:06:13;;;;;;;4.55;1.35;;;11.90;91.20;;;;;;4973337;28;20054;-84
2023/10/31 08:08:39;;;;;;;3.00;1.10;;;12.00;91.30;;;;;;4973879;28;20038;-84
2023/10/31 08:11:08;;;;;;;3.08;0.90;;;12.20;91.40;;;;;;4973438;28;20547;-84
2023/10/31 08:13:34;;;;;;;5.53;1.02;;;12.30;91.50;;;;;;4973558;28;20043;-84
2023/10/31 08:15:59;;;;;;;3.00;0.90;;;12.50;91.50;;;;;;4973481;28;20402;-84
2023/10/31 08:18:25;;;;;;;5.22;1.10;;;12.60;91.30;;;;;;4973716;28;20038;-85
2023/10/31 08:20:50;;;;;;;2.60;0.75;;;12.70;91.00;;;;;;4972923;28;20094;-85
2023/10/31 08:23:19;;;;;;;2.15;0.70;;;12.80;90.70;;;;;;4973411;28;20046;-85
2023/10/31 08:25:45;;;;;;;4.32;0.80;;;12.90;90.50;;;;;;4973414;28;20271;-85
2023/10/31 08:28:11;;;;;;;3.38;0.60;;;13.00;90.40;;;;;;4973042;28;20118;-85
2023/10/31 08:30:38;;;;;;;2.95;0.75;;;13.20;90.40;;;;;;4972800;28;20050;-84
2023/10/31 08:33:04;;;;;;;3.13;0.70;;;13.40;90.30;;;;;;4957365;28;20042;-85
2023/10/31 08:35:29;;;;;;;2.90;0.65;;;13.50;90.10;;;;;;4956674;28;20514;-84
2023/10/31 08:37:55;;;;;;;4.97;1.33;;;13.70;90.00;;;;;;4972677;28;20046;-84
2023/10/31 08:40:20;;;;;;;1.33;0.38;;;13.80;89.50;;;;;;4957211;28;20038;-84
2023/10/31 08:42:46;;;;;;;3.35;0.70;;;14.00;88.90;;;;;;4957095;28;20038;-85
2023/10/31 08:45:12;;;;;;;4.35;0.80;;;14.20;88.10;;;;;;4972980;28;20038;-85
2023/10/31 08:47:37;;;;;;;1.73;0.40;;;14.40;87.40;;;;;;4972699;28;20098;-85
2023/10/31 08:50:03;;;;;;;2.58;0.65;;;14.50;86.80;;;;;;4972112;28;20051;-86
2023/10/31 08:52:29;;;;;;;2.83;0.52;;;14.60;86.10;;;;;;4956777;28;20495;-84
2023/10/31 08:54:55;;;;;;;2.15;0.43;;;14.80;85.30;;;;;;4973073;28;20043;-85
2023/10/31 08:57:22;;;;;;;4.85;0.70;;;14.90;84.40;;;;;;4956192;28;20508;-85
2023/10/31 08:59:47;;;;;;;3.03;0.57;;;14.90;83.10;;;;;;4972270;28;20491;-86
2023/10/31 09:02:13;;;;;;;4.90;0.85;;;15.10;82.40;;;;;;4972414;28;20069;-85
2023/10/31 09:04:40;;;;;;;4.63;0.73;;;15.10;81.70;;;;;;4972083;28;20447;-85
2023/10/31 09:07:07;;;;;;;3.03;0.47;;;15.20;81.10;;;;;;4956292;28;20043;-84
2023/10/31 09:09:32;;;;;;;3.67;0.93;;;15.10;80.60;;;;;;4972362;28;20081;-85
2023/10/31 09:11:58;;;;;;;2.28;0.55;;;15.10;80.50;;;;;;4972581;28;20403;-85
2023/10/31 09:14:24;;;;;;;1.63;0.60;;;15.10;80.10;;;;;;4972526;28;20046;-86
2023/10/31 09:16:49;;;;;;;5.03;0.98;;;15.10;79.70;;;;;;4956302;28;20045;-85
2023/10/31 09:19:15;;;;;;;4.57;0.63;;;15.10;79.40;;;;;;4971851;28;20093;-85
2023/10/31 09:21:41;;;;;;;0.90;0.40;;;15.20;79.20;;;;;;4972279;28;20046;-85
2023/10/31 09:24:08;;;;;;;3.38;0.68;;;15.10;79.20;;;;;;4972244;28;20050;-85
2023/10/31 09:26:33;;;;;;;2.83;0.68;;;15.00;78.90;;;;;;4972277;28;20046;-84
2023/10/31 09:28:59;;;;;;;3.72;0.63;;;15.10;79.10;;;;;;4972158;28;20047;-84
2023/10/31 09:31:24;;;;;;;3.05;0.40;;;15.00;79.30;;;;;;4971850;28;20101;-85
2023/10/31 09:33:50;;;;;;;2.05;0.50;;;14.90;79.10;;;;;;4955214;28;20129;-86
2023/10/31 09:36:16;;;;;;;3.45;1.00;;;14.90;79.20;;;;;;4956022;28;20113;-85
2023/10/31 09:38:42;;;;;;;3.50;0.35;;;14.90;79.20;;;;;;4972267;28;20038;-85
2023/10/31 09:41:07;;;;;;;2.78;0.70;;;14.80;79.50;;;;;;4972170;28;20130;-85
2023/10/31 09:43:33;;;;;;;4.43;1.05;;;14.80;79.80;;;;;;4972196;28;20030;-86
2023/10/31 09:46:01;;;;;;;3.20;0.47;;;14.70;79.90;;;;;;4972310;28;20484;-87
2023/10/31 09:48:28;;;;;;;1.05;0.30;;;14.80;79.90;;;;;;4970644;28;20051;-86
2023/10/31 09:50:53;;;;;;;1.50;0.38;;;15.20;80.20;;;;;;4972382;28;20046;-87
2023/10/31 09:53:20;;;;;;;1.98;0.30;;;14.80;80.20;;;;;;4971924;28;20046;-86
2023/10/31 09:55:46;;;;;;;1.85;0.20;;;15.00;80.30;;;;;;4971955;28;20046;-86
2023/10/31 09:58:12;;;;;;;0.63;0.10;;;14.60;80.00;;;;;;4955359;28;20049;-86
2023/10/31 10:00:40;;;;;;;0.65;0.10;;;14.50;80.00;;;;;;4971255;28;20039;-85
2023/10/31 10:03:09;;;;;;;0.22;0.00;;;14.40;80.10;;;;;;4971299;28;20043;-86
2023/10/31 10:05:36;;;;;;;0.52;0.10;;;14.60;80.50;;;;;;4971947;28;20191;-86
2023/10/31 10:08:03;;;;;;;0.75;0.10;;;14.20;80.70;;;;;;4971624;28;20476;-85
2023/10/31 10:10:29;;;;;;;1.27;0.10;;;14.20;81.20;;;;;;4971355;28;20101;-85
2023/10/31 10:12:56;;;;;;;0.82;0.10;;;14.10;81.50;;;;;;4955804;28;20122;-86
2023/10/31 10:15:21;;;;;;;1.20;0.13;;;14.00;81.70;;;;;;4955770;28;20137;-85
2023/10/31 10:17:53;;;;;;;1.52;0.10;;;14.00;82.10;;;;;;4955327;28;20089;-86
2023/10/31 10:20:19;;;;;;;2.15;0.20;;;14.10;82.70;;;;;;4971706;28;20476;-86
2023/10/31 10:22:46;;;;;;;0.38;0.10;;;14.00;83.00;;;;;;4971462;28;20586;-86
2023/10/31 10:25:15;;;;;;;1.05;0.20;;;14.00;83.00;;;;;;4971478;28;20070;-86
2023/10/31 10:27:44;;;;;;;0.90;0.20;;;13.90;83.20;;;;;;4955489;28;20392;-85
2023/10/31 10:30:12;;;;;;;1.02;0.40;;;13.90;83.40;;;;;;4942644;28;20067;-85
2023/10/31 10:32:38;;;;;;;1.20;0.22;;;13.90;83.80;;;;;;4968542;28;20093;-85
2023/10/31 10:35:04;;;;;;;0.82;0.30;;;13.90;84.00;;;;;;4955336;28;20487;-85
2023/10/31 10:37:30;;;;;;;3.00;0.40;;;13.90;84.10;;;;;;4955313;28;20034;-87
2023/10/31 10:39:59;;;;;;;0.73;0.28;;;13.90;84.10;;;;;;4971348;28;20122;-85
2023/10/31 10:42:46;;;;;;;1.27;0.43;;;13.90;84.10;;;;;;4971395;28;20117;-85
2023/10/31 10:45:18;;;;;;;1.13;0.30;;;13.90;84.10;;;;;;4970974;28;20055;-85
2023/10/31 10:47:50;;;;;;;0.22;0.10;;;13.90;84.40;;;;;;4971047;28;20059;-87
2023/10/31 10:50:20;;;;;;;0.63;0.20;;;13.90;84.40;;;;;;4971249;28;20051;-86
2023/10/31 10:53:10;;;;;;;0.47;0.22;;;13.90;84.60;;;;;;4955076;28;20038;-85
2023/10/31 10:55:42;;;;;;;1.48;0.32;;;13.90;85.00;;;;;;4964300;28;20051;-85
2023/10/31 10:58:19;;;;;;;1.00;0.25;;;14.00;85.70;;;;;;4971226;28;20054;-87
2023/10/31 11:00:45;;;;;;;1.17;0.20;;;14.00;86.10;;;;;;4956479;28;20512;-85
2023/10/31 11:03:12;;;;;;;2.25;0.20;;;14.00;85.70;;;;;;4974812;28;20043;-85
2023/10/31 11:05:38;;;;;;;1.23;0.20;;;14.10;85.50;;;;;;4958878;28;20479;-84
2023/10/31 11:08:05;;;;;;;0.38;0.10;;;14.10;85.20;;;;;;4958538;28;20046;-84
2023/10/31 11:10:31;;;;;;;1.40;0.30;;;14.10;84.90;;;;;;4974839;28;20364;-84
2023/10/31 11:12:57;;;;;;;0.50;0.10;;;14.10;84.70;;;;;;4974714;28;20058;-84
2023/10/31 11:15:24;;;;;;;0.10;0.10;;;14.10;84.60;;;;;;4974154;28;20039;-85
2023/10/31 11:17:52;;;;;;;0.55;0.20;;;14.10;84.50;;;;;;4974483;28;20039;-84
2023/10/31 11:20:18;;;;;;;0.88;0.25;;;14.10;84.40;;;;;;4974552;28;20046;-84
2023/10/31 11:22:45;;;;;;;0.20;0.10;;;14.10;84.30;;;;;;4974530;28;20084;-84
2023/10/31 11:25:23;;;;;;;0.75;0.20;;;14.10;84.30;;;;;;4958393;28;20043;-84
2023/10/31 11:27:50;;;;;;;2.05;0.30;;;14.10;84.30;;;;;;4974293;28;20118;-85
2023/10/31 11:30:28;;;;;;;1.15;0.20;;;14.10;84.50;;;;;;4973500;28;20051;-85
2023/10/31 11:32:55;;;;;;;2.70;0.30;;;14.10;84.50;;;;;;4974414;28;20125;-84
2023/10/31 11:35:23;;;;;;;1.02;0.43;;;14.10;84.60;;;;;;4958225;28;20122;-84
2023/10/31 11:37:50;;;;;;;0.30;0.10;;;14.10;84.60;;;;;;4974237;28;20038;-84
2023/10/31 11:40:20;;;;;;;2.60;0.45;;;14.10;84.40;;;;;;4974098;28;20046;-84
2023/10/31 11:42:56;;;;;;;0.35;0.08;;;14.10;84.50;;;;;;4957536;28;20039;-83
2023/10/31 11:45:36;;;;;;;0.63;0.20;;;14.10;84.50;;;;;;4974312;28;20035;-84
2023/10/31 11:48:04;;;;;;;1.13;0.20;;;14.00;84.80;;;;;;4973965;28;20055;-84
2023/10/31 11:50:31;;;;;;;2.83;0.40;;;14.00;85.50;;;;;;4957691;28;20139;-84
2023/10/31 11:53:05;;;;;;;1.33;0.40;;;14.00;86.10;;;;;;4974096;28;20034;-84
2023/10/31 11:55:41;;;;;;;0.63;0.28;;;14.10;86.40;;;;;;4958022;28;20695;-84
2023/10/31 11:58:19;;;;;;;0.73;0.20;;;14.10;86.40;;;;;;4973342;28;20058;-85
2023/10/31 12:00:46;;;;;;;0.52;0.17;;;14.10;86.20;;;;;;4973667;28;20035;-84
2023/10/31 12:03:13;;;;;;;0.60;0.28;;;14.10;85.90;;;;;;4968178;28;20081;-84
2023/10/31 12:05:38;;;;;;;0.35;0.10;;;14.30;85.90;;;;;;4973501;28;20043;-84
2023/10/31 12:08:04;;;;;;;0.80;0.30;;;14.10;85.70;;;;;;4957483;28;20035;-84
2023/10/31 12:10:30;;;;;;;0.35;0.10;;;14.10;85.50;;;;;;4973776;28;20038;-84
2023/10/31 12:12:58;;;;;;;0.47;0.20;;;14.10;85.40;;;;;;4972658;28;20046;-84
2023/10/31 12:15:27;;;;;;;0.68;0.10;;;14.20;85.30;;;;;;4973493;28;20031;-84
2023/10/31 12:17:57;;;;;;;0.32;0.17;;;14.10;85.20;;;;;;4957174;28;20305;-85
2023/10/31 12:20:24;;;;;;;2.22;0.32;;;14.10;85.50;;;;;;4970805;28;20089;-84
2023/10/31 12:23:02;;;;;;;1.23;0.15;;;14.10;85.60;;;;;;4956831;28;20035;-86
2023/10/31 12:25:28;;;;;;;1.02;0.30;;;14.20;85.90;;;;;;4955240;28;20034;-85
2023/10/31 12:27:53;;;;;;;1.10;0.30;;;14.20;86.10;;;;;;4972307;28;20151;-84
2023/10/31 12:30:20;;;;;;;1.40;0.30;;;14.40;86.10;;;;;;4972730;28;20075;-84
2023/10/31 12:32:55;;;;;;;1.50;0.63;;;14.20;86.00;;;;;;4973154;28;20122;-85
2023/10/31 12:35:22;;;;;;;1.80;0.30;;;14.30;85.90;;;;;;4956847;28;20035;-85
2023/10/31 12:37:49;;;;;;;1.00;0.30;;;14.30;85.80;;;;;;4972988;28;20042;-84
2023/10/31 12:40:20;;;;;;;1.85;0.30;;;14.30;85.60;;;;;;4972851;28;20488;-86
2023/10/31 12:42:47;;;;;;;1.38;0.30;;;14.30;85.40;;;;;;4956349;28;20471;-85
2023/10/31 12:45:12;;;;;;;0.80;0.22;;;14.30;85.10;;;;;;4956417;28;20039;-85